createdAt,value
2023-01-06T00:01:34.132Z,100767.66
2023-01-06T00:04:03.331Z,100767.66
2023-01-06T00:06:31.831Z,100767.66
2023-01-06T00:09:01.201Z,100766.41
2023-01-06T00:11:29.270Z,100768.09
2023-01-06T00:13:59.406Z,100773.00
2023-01-06T00:16:27.476Z,100773.84
2023-01-06T00:18:56.781Z,100772.19
2023-01-06T00:21:24.965Z,100774.25
2023-01-06T00:23:52.771Z,100770.53
2023-01-06T00:26:20.693Z,100759.81
2023-01-06T00:28:49.468Z,100756.31
2023-01-06T00:31:18.637Z,100756.97
2023-01-06T00:33:46.361Z,100751.59
2023-01-06T00:36:15.109Z,100749.94
2023-01-06T00:38:43.071Z,100744.59
2023-01-06T00:41:27.739Z,100738.00
2023-01-06T00:43:55.719Z,100744.38
2023-01-06T00:46:29.127Z,100742.75
2023-01-06T00:49:05.038Z,100729.75
2023-01-06T00:51:33.141Z,100736.56
2023-01-06T00:54:02.043Z,100748.09
2023-01-06T00:56:30.044Z,100738.22
2023-01-06T00:58:57.947Z,100738.00
2023-01-06T01:01:27.377Z,100737.59
2023-01-06T01:03:55.526Z,100735.13
2023-01-06T01:06:23.407Z,100733.28
2023-01-06T01:08:54.242Z,100728.56
2023-01-06T01:11:35.677Z,100727.72
2023-01-06T01:14:03.308Z,100727.72
2023-01-06T01:16:34.080Z,100737.19
2023-01-06T01:19:02.347Z,100727.09
2023-01-06T01:21:29.918Z,100729.97
2023-01-06T01:23:57.524Z,100725.25
2023-01-06T01:26:25.307Z,100721.13
2023-01-06T01:28:53.104Z,100730.19
2023-01-06T01:31:20.965Z,100720.72
2023-01-06T01:33:50.421Z,100722.34
2023-01-06T01:36:19.110Z,100718.25
2023-01-06T01:38:46.683Z,100726.50
2023-01-06T01:41:16.212Z,100720.53
2023-01-06T01:43:45.371Z,100724.41
2023-01-06T01:46:14.272Z,100721.97
2023-01-06T01:48:41.924Z,100718.25
2023-01-06T01:51:13.849Z,100719.28
2023-01-06T01:53:43.708Z,100720.31
2023-01-06T01:56:14.201Z,100714.97
2023-01-06T01:58:46.921Z,100723.41
2023-01-06T02:01:14.988Z,100721.13
2023-01-06T02:03:43.504Z,100720.09
2023-01-06T02:06:14.726Z,100718.25
2023-01-06T02:08:44.486Z,100726.50
2023-01-06T02:11:12.030Z,100720.72
2023-01-06T02:13:42.785Z,100709.19
2023-01-06T02:16:16.680Z,100706.28
2023-01-06T02:18:53.927Z,100703.00
2023-01-06T02:21:30.514Z,100711.84
2023-01-06T02:24:13.807Z,100714.94
2023-01-06T02:27:16.214Z,100717.22
2023-01-06T02:30:16.244Z,100714.53
2023-01-06T02:32:52.694Z,100727.72
2023-01-06T02:35:38.128Z,100723.63
2023-01-06T02:38:14.018Z,100722.38
2023-01-06T02:40:51.361Z,100725.44
2023-01-06T02:43:26.279Z,100732.25
2023-01-06T02:45:58.228Z,100729.78
2023-01-06T02:48:31.851Z,100732.03
2023-01-06T02:51:05.717Z,100737.19
2023-01-06T02:53:37.852Z,100749.56
2023-01-06T02:56:06.102Z,100746.06
2023-01-06T02:58:36.503Z,100743.38
2023-01-06T03:01:05.762Z,100745.44
2023-01-06T03:03:37.418Z,100743.78
2023-01-06T03:06:07.714Z,100733.47
2023-01-06T03:08:36.622Z,100727.50
2023-01-06T03:11:04.740Z,100733.47
2023-01-06T03:13:37.180Z,100724.44
2023-01-06T03:16:06.003Z,100729.78
2023-01-06T03:18:35.785Z,100717.81
2023-01-06T03:21:06.506Z,100719.47
2023-01-06T03:23:35.426Z,100717.44
2023-01-06T03:26:02.923Z,100723.38
2023-01-06T03:28:30.850Z,100719.09
2023-01-06T03:31:05.737Z,100715.34
2023-01-06T03:33:39.792Z,100706.50
2023-01-06T03:36:10.191Z,100717.22
2023-01-06T03:38:44.189Z,100713.69
2023-01-06T03:41:20.856Z,100714.53
2023-01-06T03:43:59.328Z,100712.28
2023-01-06T03:46:30.984Z,100710.81
2023-01-06T03:49:06.385Z,100704.00
2023-01-06T03:51:46.511Z,100708.16
2023-01-06T03:54:19.850Z,100712.88
2023-01-06T03:56:51.077Z,100707.09
2023-01-06T03:59:21.974Z,100696.84
2023-01-06T04:01:50.304Z,100691.66
2023-01-06T04:04:20.080Z,100693.94
2023-01-06T04:06:48.113Z,100692.69
2023-01-06T04:09:15.932Z,100688.34
2023-01-06T04:12:01.414Z,100694.75
2023-01-06T04:14:29.172Z,100686.13
2023-01-06T04:16:56.868Z,100682.38
2023-01-06T04:19:25.976Z,100677.03
2023-01-06T04:21:53.770Z,100681.38
2023-01-06T04:24:21.496Z,100690.66
2023-01-06T04:26:49.402Z,100677.44
2023-01-06T04:29:16.950Z,100672.50
2023-01-06T04:31:44.809Z,100682.19
2023-01-06T04:34:12.609Z,100675.78
2023-01-06T04:36:41.819Z,100683.81
2023-01-06T04:39:09.782Z,100675.00
2023-01-06T04:41:37.745Z,100679.09
2023-01-06T04:44:05.778Z,100676.22
2023-01-06T04:46:33.350Z,100671.69
2023-01-06T04:49:01.101Z,100674.16
2023-01-06T04:51:28.928Z,100669.81
2023-01-06T04:53:57.907Z,100666.72
2023-01-06T04:56:26.925Z,100667.34
2023-01-06T04:58:55.871Z,100658.88
2023-01-06T05:01:24.901Z,100645.50
2023-01-06T05:03:53.148Z,100650.47
2023-01-06T05:06:21.576Z,100649.84
2023-01-06T05:08:49.404Z,100642.81
2023-01-06T05:11:20.466Z,100652.75
2023-01-06T05:13:48.422Z,100645.72
2023-01-06T05:16:18.935Z,100637.50
2023-01-06T05:18:47.053Z,100644.03
2023-01-06T05:21:14.847Z,100639.53
2023-01-06T05:23:43.384Z,100639.13
2023-01-06T05:26:12.925Z,100641.81
2023-01-06T05:28:42.207Z,100644.47
2023-01-06T05:31:11.517Z,100650.22
2023-01-06T05:33:39.981Z,100649.84
2023-01-06T05:36:12.132Z,100640.16
2023-01-06T05:38:40.183Z,100638.66
2023-01-06T05:41:08.293Z,100635.81
2023-01-06T05:43:37.365Z,100633.75
2023-01-06T05:46:11.079Z,100632.94
2023-01-06T05:48:39.604Z,100638.72
2023-01-06T05:51:09.095Z,100636.44
2023-01-06T05:53:38.697Z,100640.75
2023-01-06T05:56:07.647Z,100642.41
2023-01-06T05:58:36.833Z,100644.03
2023-01-06T06:01:05.810Z,100646.94
2023-01-06T06:03:34.989Z,100644.84
2023-01-06T06:06:06.637Z,100638.47
2023-01-06T06:08:34.485Z,100647.34
2023-01-06T06:11:04.497Z,100650.22
2023-01-06T06:13:32.496Z,100653.09
2023-01-06T06:16:07.692Z,100648.13
2023-01-06T06:18:42.670Z,100635.94
2023-01-06T06:21:24.874Z,100642.19
2023-01-06T06:23:53.819Z,100628.38
2023-01-06T06:26:21.606Z,100634.97
2023-01-06T06:28:52.593Z,100643.22
2023-01-06T06:31:22.799Z,100634.13
2023-01-06T06:33:52.725Z,100636.81
2023-01-06T06:36:20.863Z,100629.59
2023-01-06T06:38:51.111Z,100632.06
2023-01-06T06:41:20.119Z,100636.19
2023-01-06T06:43:48.079Z,100634.97
2023-01-06T06:46:16.917Z,100634.75
2023-01-06T06:48:46.241Z,100633.72
2023-01-06T06:51:17.630Z,100637.59
2023-01-06T06:53:45.874Z,100637.19
2023-01-06T06:56:14.712Z,100642.38
2023-01-06T06:58:42.704Z,100637.41
2023-01-06T07:01:12.186Z,100637.41
2023-01-06T07:03:40.446Z,100628.56
2023-01-06T07:06:09.674Z,100626.94
2023-01-06T07:08:38.802Z,100608.56
2023-01-06T07:11:06.703Z,100615.75
2023-01-06T07:13:34.671Z,100606.09
2023-01-06T07:16:02.653Z,100603.81
2023-01-06T07:18:30.363Z,100602.00
2023-01-06T07:20:58.032Z,100589.19
2023-01-06T07:23:25.944Z,100592.88
2023-01-06T07:25:55.531Z,100590.44
2023-01-06T07:28:23.549Z,100584.06
2023-01-06T07:30:51.606Z,100584.50
2023-01-06T07:33:20.069Z,100581.16
2023-01-06T07:35:47.789Z,100583.06
2023-01-06T07:38:16.135Z,100587.78
2023-01-06T07:40:43.892Z,100588.56
2023-01-06T07:43:13.696Z,100590.47
2023-01-06T07:45:41.336Z,100579.75
2023-01-06T07:48:10.116Z,100583.47
2023-01-06T07:50:37.880Z,100575.03
2023-01-06T07:53:05.889Z,100585.09
2023-01-06T07:55:33.681Z,100585.09
2023-01-06T07:58:05.988Z,100594.19
2023-01-06T08:00:36.009Z,100591.72
2023-01-06T08:03:05.052Z,100594.56
2023-01-06T08:05:32.882Z,100594.56
2023-01-06T08:08:00.883Z,100588.78
2023-01-06T08:10:28.879Z,100582.19
2023-01-06T08:12:56.660Z,100603.44
2023-01-06T08:15:24.509Z,100603.63
2023-01-06T08:17:55.418Z,100592.88
2023-01-06T08:20:23.447Z,100594.50
2023-01-06T08:22:51.387Z,100607.72
2023-01-06T08:25:19.543Z,100614.28
2023-01-06T08:27:47.743Z,100613.91
2023-01-06T08:30:20.019Z,100618.06
2023-01-06T08:32:47.787Z,100611.09
2023-01-06T08:35:17.587Z,100617.25
2023-01-06T08:37:45.599Z,100624.03
2023-01-06T08:40:13.501Z,100628.59
2023-01-06T08:42:41.329Z,100616.50
2023-01-06T08:45:09.760Z,100613.19
2023-01-06T08:47:37.693Z,100616.25
2023-01-06T08:50:06.105Z,100625.13
2023-01-06T08:52:35.294Z,100624.69
2023-01-06T08:55:03.057Z,100625.50
2023-01-06T08:57:31.373Z,100629.66
2023-01-06T08:59:59.701Z,100621.81
2023-01-06T09:02:29.949Z,100626.75
2023-01-06T09:04:57.869Z,100623.28
2023-01-06T09:07:25.731Z,100631.72
2023-01-06T09:09:55.297Z,100626.97
2023-01-06T09:12:23.201Z,100630.09
2023-01-06T09:14:51.010Z,100636.47
2023-01-06T09:17:19.284Z,100639.16
2023-01-06T09:19:50.753Z,100624.75
2023-01-06T09:22:18.656Z,100626.78
2023-01-06T09:24:46.479Z,100623.09
2023-01-06T09:27:15.769Z,100630.72
2023-01-06T09:29:43.689Z,100626.84
2023-01-06T09:32:11.492Z,100629.28
2023-01-06T09:34:39.411Z,100622.91
2023-01-06T09:37:07.218Z,100632.38
2023-01-06T09:39:37.115Z,100621.69
2023-01-06T09:42:27.449Z,100615.09
2023-01-06T09:44:56.903Z,100621.03
2023-01-06T09:47:27.356Z,100627.81
2023-01-06T09:49:58.699Z,100639.75
2023-01-06T09:52:29.750Z,100652.09
2023-01-06T09:54:59.573Z,100653.53
2023-01-06T09:57:34.474Z,100653.53
2023-01-06T10:00:03.828Z,100666.91
2023-01-06T10:02:35.121Z,100666.91
2023-01-06T10:05:03.296Z,100673.69
2023-01-06T10:07:37.298Z,100670.78
2023-01-06T10:10:15.680Z,100680.63
2023-01-06T10:12:53.107Z,100671.53
2023-01-06T10:15:28.671Z,100668.66
2023-01-06T10:18:07.476Z,100675.25
2023-01-06T10:20:45.916Z,100669.50
2023-01-06T10:23:29.321Z,100677.75
2023-01-06T10:26:03.217Z,100688.47
2023-01-06T10:28:35.974Z,100695.66
2023-01-06T10:31:06.998Z,100708.41
2023-01-06T10:33:37.421Z,100704.84
2023-01-06T10:36:10.657Z,100718.00
2023-01-06T10:38:40.766Z,100705.63
2023-01-06T10:41:15.071Z,100706.63
2023-01-06T10:43:44.344Z,100726.00
2023-01-06T10:46:12.207Z,100733.81
2023-01-06T10:48:40.673Z,100745.13
2023-01-06T10:51:30.726Z,100736.84
2023-01-06T10:53:59.423Z,100743.75
2023-01-06T10:56:27.674Z,100742.06
2023-01-06T10:58:59.479Z,100738.97
2023-01-06T11:01:28.970Z,100741.50
2023-01-06T11:04:10.115Z,100733.22
2023-01-06T11:06:40.657Z,100749.75
2023-01-06T11:09:10.406Z,100747.53
2023-01-06T11:11:48.685Z,100750.72
2023-01-06T11:14:20.799Z,100750.72
2023-01-06T11:16:56.450Z,100754.84
2023-01-06T11:19:32.082Z,100746.28
2023-01-06T11:21:59.956Z,100751.09
2023-01-06T11:24:28.285Z,100742.22
2023-01-06T11:26:57.590Z,100755.03
2023-01-06T11:29:29.590Z,100740.47
2023-01-06T11:31:58.597Z,100755.50
2023-01-06T11:34:29.174Z,100756.78
2023-01-06T11:36:57.462Z,100740.88
2023-01-06T11:39:28.921Z,100763.91
2023-01-06T11:41:57.753Z,100757.09
2023-01-06T11:44:32.579Z,100752.81
2023-01-06T11:47:02.283Z,100751.81
2023-01-06T11:49:32.451Z,100750.81
2023-01-06T11:52:02.759Z,100742.69
2023-01-06T11:54:36.553Z,100743.19
2023-01-06T11:57:16.984Z,100744.03
2023-01-06T12:00:19.067Z,100741.94
2023-01-06T12:02:52.371Z,100745.47
2023-01-06T12:05:26.970Z,100740.28
2023-01-06T12:07:57.187Z,100747.69
2023-01-06T12:10:32.248Z,100748.09
2023-01-06T12:13:00.301Z,100753.38
2023-01-06T12:15:30.986Z,100756.44
2023-01-06T12:18:03.977Z,100746.78
2023-01-06T12:20:34.063Z,100763.63
2023-01-06T12:23:04.638Z,100766.75
2023-01-06T12:25:35.001Z,100765.34
2023-01-06T12:28:05.432Z,100772.97
2023-01-06T12:30:36.977Z,100776.66
2023-01-06T12:33:11.128Z,100774.03
2023-01-06T12:35:40.632Z,100763.47
2023-01-06T12:38:15.873Z,100765.94
2023-01-06T12:40:47.563Z,100766.75
2023-01-06T12:43:17.267Z,100757.84
2023-01-06T12:45:57.325Z,100765.66
2023-01-06T12:48:35.115Z,100764.16
2023-01-06T12:51:09.857Z,100774.44
2023-01-06T12:53:40.832Z,100770.91
2023-01-06T12:56:26.662Z,100767.72
2023-01-06T12:59:00.795Z,100776.16
2023-01-06T13:01:35.051Z,100781.53
2023-01-06T13:04:15.435Z,100774.19
2023-01-06T13:06:53.675Z,100789.66
2023-01-06T13:09:32.935Z,100784.44
2023-01-06T13:12:11.356Z,100788.41
2023-01-06T13:14:43.737Z,100785.78
2023-01-06T13:17:17.454Z,100795.28
2023-01-06T13:19:50.470Z,100792.25
2023-01-06T13:22:20.796Z,100793.66
2023-01-06T13:25:01.004Z,100777.56
2023-01-06T13:27:41.024Z,100771.72
2023-01-06T13:30:20.323Z,100773.75
2023-01-06T13:33:02.007Z,100783.84
2023-01-06T13:35:55.823Z,100781.53
2023-01-06T13:38:37.225Z,100785.28
2023-01-06T13:41:07.213Z,100775.78
2023-01-06T13:43:35.788Z,100778.63
2023-01-06T13:46:06.848Z,100774.75
2023-01-06T13:48:36.764Z,100779.28
2023-01-06T13:51:08.794Z,100791.06
2023-01-06T13:53:39.645Z,100792.34
2023-01-06T13:56:24.381Z,100793.84
2023-01-06T13:58:53.110Z,100790.38
2023-01-06T14:01:32.757Z,100799.19
2023-01-06T14:04:45.451Z,100788.66
2023-01-06T14:07:14.936Z,100790.91
2023-01-06T14:09:48.994Z,100780.19
2023-01-06T14:12:20.354Z,100780.50
2023-01-06T14:14:57.708Z,100786.19
2023-01-06T14:17:31.685Z,100807.56
2023-01-06T14:19:59.604Z,100808.38
2023-01-06T14:22:29.798Z,100795.13
2023-01-06T14:24:59.044Z,100794.41
2023-01-06T14:28:04.570Z,100807.91
2023-01-06T14:30:33.752Z,100810.84
2023-01-06T14:33:27.376Z,100801.09
2023-01-06T14:36:03.543Z,100806.13
2023-01-06T14:38:36.523Z,100800.81
2023-01-06T14:41:06.296Z,100794.25
2023-01-06T14:43:39.599Z,100788.47
2023-01-06T14:46:12.373Z,100796.59
2023-01-06T14:48:45.634Z,100797.88
2023-01-06T14:51:17.329Z,100790.28
2023-01-06T14:53:52.866Z,100787.44
2023-01-06T14:56:22.351Z,100790.13
2023-01-06T14:58:50.385Z,100788.25
2023-01-06T15:01:24.928Z,100793.63
2023-01-06T15:03:57.541Z,100794.28
2023-01-06T15:06:29.600Z,100788.28
2023-01-06T15:09:12.362Z,100791.34
2023-01-06T15:11:42.475Z,100789.53
2023-01-06T15:14:28.491Z,100787.66
2023-01-06T15:16:57.612Z,100791.59
2023-01-06T15:19:25.602Z,100777.34
2023-01-06T15:21:54.662Z,100787.84
2023-01-06T15:24:24.977Z,100784.75
2023-01-06T15:26:54.305Z,100784.59
2023-01-06T15:29:23.888Z,100784.13
2023-01-06T15:31:52.627Z,100786.22
2023-01-06T15:34:22.410Z,100803.09
2023-01-06T15:36:52.282Z,100796.53
2023-01-06T15:39:26.968Z,100794.44
2023-01-06T15:41:55.421Z,100798.59
2023-01-06T15:44:28.326Z,100795.91
2023-01-06T15:46:59.459Z,100793.25
2023-01-06T15:49:30.072Z,100797.72
2023-01-06T15:52:01.811Z,100792.00
2023-01-06T15:54:32.936Z,100784.16
2023-01-06T15:57:15.149Z,100795.66
2023-01-06T15:59:53.507Z,100800.63
2023-01-06T16:02:24.523Z,100798.53
2023-01-06T16:04:52.380Z,100792.13
2023-01-06T16:07:35.112Z,100794.38
2023-01-06T16:10:05.294Z,100793.94
2023-01-06T16:12:33.210Z,100790.16
2023-01-06T16:15:36.424Z,100783.13
2023-01-06T16:18:04.221Z,100772.19
2023-01-06T16:20:31.793Z,100775.22
2023-01-06T16:22:59.746Z,100783.19
2023-01-06T16:25:32.129Z,100792.47
2023-01-06T16:28:02.089Z,100788.91
2023-01-06T16:30:44.596Z,100799.84
2023-01-06T16:33:33.510Z,100805.59
2023-01-06T16:36:01.436Z,100803.16
2023-01-06T16:38:30.009Z,100804.59
2023-01-06T16:40:59.077Z,100801.13
2023-01-06T16:43:26.996Z,100804.25
2023-01-06T16:45:54.953Z,100810.00
2023-01-06T16:48:22.951Z,100814.13
2023-01-06T16:50:54.889Z,100808.78
2023-01-06T16:53:24.170Z,100810.63
2023-01-06T16:55:53.221Z,100809.16
2023-01-06T16:58:23.933Z,100804.25
2023-01-06T17:00:54.229Z,100816.97
2023-01-06T17:03:23.994Z,100818.59
2023-01-06T17:05:52.569Z,100820.66
2023-01-06T17:08:24.150Z,100814.06
2023-01-06T17:10:52.187Z,100814.69
2023-01-06T17:13:40.632Z,100816.53
2023-01-06T17:16:16.621Z,100812.84
2023-01-06T17:18:51.074Z,100806.88
2023-01-06T17:21:20.877Z,100804.81
2023-01-06T17:23:50.659Z,100797.63
2023-01-06T17:26:20.423Z,100810.44
2023-01-06T17:28:49.147Z,100805.09
2023-01-06T17:31:21.129Z,100801.38
2023-01-06T17:33:49.076Z,100807.97
2023-01-06T17:36:23.909Z,100807.16
2023-01-06T17:38:52.489Z,100800.81
2023-01-06T17:41:20.673Z,100799.56
2023-01-06T17:43:48.626Z,100803.88
2023-01-06T17:46:25.771Z,100799.38
2023-01-06T17:49:03.744Z,100798.56
2023-01-06T17:51:31.493Z,100801.84
2023-01-06T17:54:17.383Z,100802.66
2023-01-06T17:56:45.345Z,100807.00
2023-01-06T17:59:16.419Z,100807.00
2023-01-06T18:01:46.581Z,100799.59
2023-01-06T18:04:16.076Z,100802.47
2023-01-06T18:06:50.485Z,100802.28
2023-01-06T18:09:18.833Z,100807.00
2023-01-06T18:11:50.033Z,100806.81
2023-01-06T18:14:24.356Z,100798.97
2023-01-06T18:16:56.764Z,100801.84
2023-01-06T18:19:28.294Z,100810.50
2023-01-06T18:21:58.231Z,100801.03
2023-01-06T18:24:31.046Z,100809.25
2023-01-06T18:27:00.075Z,100808.88
2023-01-06T18:29:31.900Z,100803.50
2023-01-06T18:32:24.334Z,100805.53
2023-01-06T18:34:53.229Z,100805.56
2023-01-06T18:37:24.410Z,100808.81
2023-01-06T18:39:53.506Z,100809.63
2023-01-06T18:42:25.399Z,100805.13
2023-01-06T18:45:11.617Z,100800.16
2023-01-06T18:47:42.916Z,100803.88
2023-01-06T18:50:24.648Z,100801.63
2023-01-06T18:52:53.404Z,100796.03
2023-01-06T18:55:30.921Z,100794.81
2023-01-06T18:58:01.473Z,100799.97
2023-01-06T19:00:41.138Z,100789.50
2023-01-06T19:03:24.953Z,100794.41
2023-01-06T19:05:55.279Z,100807.19
2023-01-06T19:08:29.629Z,100805.97
2023-01-06T19:10:57.498Z,100793.22
2023-01-06T19:13:27.761Z,100790.34
2023-01-06T19:15:56.426Z,100784.75
2023-01-06T19:18:25.536Z,100777.75
2023-01-06T19:20:53.496Z,100776.31
2023-01-06T19:23:24.833Z,100775.88
2023-01-06T19:25:57.262Z,100779.81
2023-01-06T19:28:26.839Z,100787.25
2023-01-06T19:30:55.031Z,100772.41
2023-01-06T19:33:34.258Z,100765.59
2023-01-06T19:36:18.777Z,100766.84
2023-01-06T19:38:46.520Z,100765.41
2023-01-06T19:41:20.019Z,100766.84
2023-01-06T19:43:48.972Z,100759.44
2023-01-06T19:46:19.993Z,100761.28
2023-01-06T19:48:49.288Z,100759.84
2023-01-06T19:51:27.349Z,100746.03
2023-01-06T19:53:56.420Z,100753.66
2023-01-06T19:56:26.982Z,100751.81
2023-01-06T19:58:56.420Z,100758.63
2023-01-06T20:01:25.189Z,100753.91
2023-01-06T20:03:55.584Z,100749.56
2023-01-06T20:06:24.258Z,100748.53
2023-01-06T20:08:53.879Z,100740.72
2023-01-06T20:11:22.406Z,100740.91
2023-01-06T20:13:50.725Z,100735.97
2023-01-06T20:16:18.798Z,100731.63
2023-01-06T20:18:46.464Z,100734.31
2023-01-06T20:21:15.589Z,100728.94
2023-01-06T20:23:43.197Z,100741.31
2023-01-06T20:26:11.020Z,100735.56
2023-01-06T20:28:38.755Z,100744.19
2023-01-06T20:31:06.870Z,100740.91
2023-01-06T20:33:34.895Z,100734.53
2023-01-06T20:36:02.783Z,100726.69
2023-01-06T20:38:31.992Z,100724.63
2023-01-06T20:40:59.934Z,100715.78
2023-01-06T20:43:27.857Z,100719.28
2023-01-06T20:45:55.687Z,100720.31
2023-01-06T20:48:23.434Z,100726.88
2023-01-06T20:50:53.243Z,100728.75
2023-01-06T20:53:21.148Z,100726.88
2023-01-06T20:55:50.251Z,100725.84
2023-01-06T20:58:18.219Z,100711.25
2023-01-06T21:00:46.190Z,100708.31
2023-01-06T21:03:14.163Z,100712.88
2023-01-06T21:05:42.082Z,100708.31
2023-01-06T21:08:09.838Z,100700.50
2023-01-06T21:10:38.727Z,100694.31
2023-01-06T21:13:07.825Z,100701.72
2023-01-06T21:15:35.428Z,100702.75
2023-01-06T21:18:03.366Z,100689.78
2023-01-06T21:20:31.103Z,100694.31
2023-01-06T21:22:58.702Z,100694.53
2023-01-06T21:25:26.475Z,100685.69
2023-01-06T21:27:54.248Z,100682.38
2023-01-06T21:30:24.450Z,100681.16
2023-01-06T21:32:52.333Z,100675.78
2023-01-06T21:35:19.905Z,100677.44
2023-01-06T21:37:47.668Z,100670.44
2023-01-06T21:40:16.028Z,100673.75
2023-01-06T21:43:01.318Z,100676.22
2023-01-06T21:45:30.413Z,100672.50
2023-01-06T21:47:58.332Z,100682.81
2023-01-06T21:50:27.098Z,100669.63
2023-01-06T21:52:55.600Z,100673.75
2023-01-06T21:55:23.946Z,100680.53
2023-01-06T21:57:52.051Z,100675.00
2023-01-06T22:00:20.122Z,100669.81
2023-01-06T22:02:49.936Z,100670.44
2023-01-06T22:05:17.992Z,100665.06
2023-01-06T22:07:48.484Z,100667.16
2023-01-06T22:10:18.192Z,100672.91
2023-01-06T22:12:46.995Z,100661.59
2023-01-06T22:15:15.132Z,100663.44
2023-01-06T22:17:43.024Z,100654.38
2023-01-06T22:20:14.850Z,100660.78
2023-01-06T22:22:42.973Z,100656.44
2023-01-06T22:25:11.419Z,100654.38
2023-01-06T22:27:39.245Z,100644.06
2023-01-06T22:30:08.128Z,100649.41
2023-01-06T22:32:43.166Z,100637.47
2023-01-06T22:35:12.804Z,100634.59
2023-01-06T22:37:40.824Z,100652.31
2023-01-06T22:40:09.656Z,100662.59
2023-01-06T22:42:37.767Z,100660.56
2023-01-06T22:45:06.649Z,100656.00
2023-01-06T22:47:34.641Z,100658.44
2023-01-06T22:50:02.812Z,100663.19
2023-01-06T22:52:32.138Z,100665.47
2023-01-06T22:54:59.732Z,100664.63
2023-01-06T22:57:27.466Z,100670.00
2023-01-06T22:59:56.651Z,100667.53
2023-01-06T23:02:24.592Z,100667.91
2023-01-06T23:04:52.216Z,100672.06
2023-01-06T23:07:19.937Z,100683.19
2023-01-06T23:09:49.065Z,100667.50
2023-01-06T23:12:16.676Z,100674.31
2023-01-06T23:14:44.527Z,100662.97
2023-01-06T23:17:12.237Z,100667.50
2023-01-06T23:19:40.343Z,100665.41
2023-01-06T23:22:08.093Z,100666.66
2023-01-06T23:24:35.752Z,100665.41
2023-01-06T23:27:05.136Z,100653.91
2023-01-06T23:29:32.878Z,100655.75
2023-01-06T23:32:00.612Z,100656.78
2023-01-06T23:34:28.955Z,100652.03
2023-01-06T23:36:56.653Z,100651.41
2023-01-06T23:39:24.592Z,100654.09
2023-01-06T23:41:52.337Z,100652.47
2023-01-06T23:44:21.548Z,100656.41
2023-01-06T23:46:49.300Z,100646.94
2023-01-06T23:49:18.254Z,100647.34
2023-01-06T23:51:46.374Z,100647.34
2023-01-06T23:54:14.178Z,100652.91
2023-01-06T23:56:42.166Z,100648.59
2023-01-06T23:59:12.701Z,100649.38
